createdAt,value
2022-12-18T00:01:49.375Z,90.96
2022-12-18T00:05:11.531Z,90.91
2022-12-18T00:09:09.366Z,90.76
2022-12-18T00:12:50.437Z,90.76
2022-12-18T00:16:16.748Z,90.49
2022-12-18T00:19:50.054Z,90.25
2022-12-18T00:23:28.720Z,90.27
2022-12-18T00:27:05.274Z,90.34
2022-12-18T00:30:43.102Z,90.17
2022-12-18T00:34:20.609Z,90.45
2022-12-18T00:38:17.568Z,90.31
2022-12-18T00:41:58.445Z,90.17
2022-12-18T00:45:26.210Z,90.19
2022-12-18T00:48:59.720Z,90.20
2022-12-18T00:52:45.987Z,90.24
2022-12-18T00:56:14.766Z,90.43
2022-12-18T00:59:55.552Z,90.49
2022-12-18T01:03:30.193Z,90.41
2022-12-18T01:07:08.155Z,90.44
2022-12-18T01:10:45.505Z,90.17
2022-12-18T01:14:23.451Z,89.92
2022-12-18T01:18:19.845Z,89.77
2022-12-18T01:21:42.332Z,89.94
2022-12-18T01:25:38.978Z,90.38
2022-12-18T01:29:20.111Z,90.73
2022-12-18T01:32:42.232Z,90.86
2022-12-18T01:36:26.596Z,90.70
2022-12-18T01:40:16.505Z,90.67
2022-12-18T01:43:50.304Z,90.43
2022-12-18T01:47:40.364Z,90.19
2022-12-18T01:51:23.212Z,90.34
2022-12-18T01:54:46.332Z,90.35
2022-12-18T01:58:31.799Z,90.66
2022-12-18T02:02:21.627Z,90.81
2022-12-18T02:05:50.175Z,90.75
2022-12-18T02:09:34.318Z,90.39
2022-12-18T02:14:08.138Z,90.18
2022-12-18T02:17:57.661Z,90.22
2022-12-18T02:21:43.407Z,90.39
2022-12-18T02:25:47.886Z,90.66
2022-12-18T02:29:19.704Z,90.69
2022-12-18T02:33:11.353Z,90.73
2022-12-18T02:36:55.071Z,90.69
2022-12-18T02:40:19.997Z,90.27
2022-12-18T02:44:15.074Z,90.27
2022-12-18T02:47:41.725Z,90.03
2022-12-18T02:51:31.074Z,89.87
2022-12-18T02:55:29.040Z,90.32
2022-12-18T02:59:22.490Z,90.62
2022-12-18T03:03:03.365Z,90.82
2022-12-18T03:06:50.574Z,90.56
2022-12-18T03:10:17.872Z,90.53
2022-12-18T03:14:11.070Z,90.40
2022-12-18T03:17:59.670Z,90.38
2022-12-18T03:21:29.331Z,90.03
2022-12-18T03:25:19.694Z,90.26
2022-12-18T03:28:48.297Z,90.43
2022-12-18T03:32:34.472Z,90.54
2022-12-18T03:35:59.585Z,90.57
2022-12-18T03:39:37.596Z,90.39
2022-12-18T03:44:03.911Z,90.19
2022-12-18T03:48:06.865Z,90.15
2022-12-18T03:51:43.358Z,89.79
2022-12-18T03:55:34.088Z,89.86
2022-12-18T03:59:19.381Z,90.13
2022-12-18T04:03:04.202Z,90.50
2022-12-18T04:06:51.312Z,90.76
2022-12-18T04:10:32.696Z,90.69
2022-12-18T04:14:17.860Z,90.21
2022-12-18T04:17:48.818Z,89.72
2022-12-18T04:21:18.409Z,90.01
2022-12-18T04:25:15.121Z,90.21
2022-12-18T04:28:48.851Z,90.32
2022-12-18T04:32:50.494Z,90.40
2022-12-18T04:36:34.185Z,90.64
2022-12-18T04:39:56.625Z,90.32
2022-12-18T04:43:34.362Z,89.91
2022-12-18T04:47:31.376Z,89.77
2022-12-18T04:50:53.914Z,89.55
2022-12-18T04:54:31.484Z,89.76
2022-12-18T04:58:09.586Z,90.19
2022-12-18T05:02:06.105Z,90.21
2022-12-18T05:05:29.018Z,90.12
2022-12-18T05:09:09.944Z,89.77
2022-12-18T05:13:05.560Z,89.62
2022-12-18T05:16:28.077Z,89.78
2022-12-18T05:20:06.147Z,89.54
2022-12-18T05:23:43.718Z,89.52
2022-12-18T05:27:21.740Z,89.65
2022-12-18T05:31:18.043Z,89.95
2022-12-18T05:34:41.484Z,90.23
2022-12-18T05:38:19.028Z,90.08
2022-12-18T05:42:15.007Z,90.21
2022-12-18T05:45:41.713Z,89.95
2022-12-18T05:49:33.826Z,89.57
2022-12-18T05:52:56.384Z,89.33
2022-12-18T05:56:52.990Z,89.42
2022-12-18T06:00:16.761Z,89.44
2022-12-18T06:04:12.534Z,89.56
2022-12-18T06:07:53.733Z,89.81
2022-12-18T06:11:22.407Z,89.54
2022-12-18T06:14:53.849Z,89.76
2022-12-18T06:18:50.454Z,89.56
2022-12-18T06:22:13.228Z,89.42
2022-12-18T06:26:13.784Z,88.94
2022-12-18T06:29:36.295Z,88.79
2022-12-18T06:33:34.902Z,89.29
2022-12-18T06:37:16.403Z,89.24
2022-12-18T06:40:58.443Z,89.22
2022-12-18T06:44:21.503Z,89.81
2022-12-18T06:48:21.397Z,89.65
2022-12-18T06:52:03.212Z,89.22
2022-12-18T06:55:26.823Z,89.35
2022-12-18T06:59:03.678Z,89.12
2022-12-18T07:02:41.645Z,89.06
2022-12-18T07:06:37.648Z,89.22
2022-12-18T07:10:19.168Z,88.97
2022-12-18T07:13:42.679Z,88.56
2022-12-18T07:17:38.432Z,88.44
2022-12-18T07:21:05.705Z,88.65
2022-12-18T07:24:38.790Z,88.66
2022-12-18T07:28:17.608Z,89.00
2022-12-18T07:31:54.593Z,89.28
2022-12-18T07:35:31.614Z,89.17
2022-12-18T07:39:09.418Z,89.16
2022-12-18T07:43:05.923Z,89.15
2022-12-18T07:46:47.928Z,88.85
2022-12-18T07:50:29.273Z,88.73
2022-12-18T07:53:53.556Z,88.89
2022-12-18T08:01:13.039Z,88.67
2022-12-18T08:04:50.504Z,89.23
2022-12-18T08:08:32.549Z,89.01
2022-12-18T08:12:06.046Z,88.75
2022-12-18T08:16:05.544Z,88.20
2022-12-18T08:19:27.438Z,88.09
2022-12-18T08:23:05.180Z,88.13
2022-12-18T08:26:51.856Z,88.21
2022-12-18T08:30:25.206Z,88.44
2022-12-18T08:34:01.323Z,88.52
2022-12-18T08:37:39.186Z,88.31
2022-12-18T08:41:18.064Z,87.70
2022-12-18T08:44:54.630Z,87.70
2022-12-18T08:48:52.242Z,87.60
2022-12-18T08:52:15.448Z,86.87
2022-12-18T08:56:11.185Z,87.14
2022-12-18T08:59:52.426Z,87.30
2022-12-18T09:03:16.220Z,87.61
2022-12-18T09:06:52.401Z,87.30
2022-12-18T09:10:30.765Z,86.80
2022-12-18T09:14:07.833Z,86.66
2022-12-18T09:17:45.175Z,86.58
2022-12-18T09:21:23.226Z,86.26
2022-12-18T09:25:08.886Z,86.24
2022-12-18T09:28:38.720Z,86.46
2022-12-18T09:32:22.008Z,86.48
2022-12-18T09:35:53.886Z,86.67
2022-12-18T09:39:31.240Z,86.90
2022-12-18T09:43:19.770Z,86.20
2022-12-18T09:47:25.013Z,85.60
2022-12-18T09:50:50.032Z,85.55
2022-12-18T09:54:36.910Z,84.84
2022-12-18T09:58:25.528Z,85.49
2022-12-18T10:01:48.685Z,85.30
2022-12-18T10:05:41.197Z,85.51
2022-12-18T10:09:28.637Z,85.22
2022-12-18T10:13:05.885Z,85.63
2022-12-18T10:16:44.969Z,85.61
2022-12-18T10:20:24.764Z,85.51
2022-12-18T10:24:02.115Z,85.28
2022-12-18T10:27:27.402Z,84.45
2022-12-18T10:31:05.892Z,84.43
2022-12-18T10:34:40.801Z,84.74
2022-12-18T10:38:18.146Z,84.23
2022-12-18T10:42:20.726Z,84.07
2022-12-18T10:46:03.091Z,84.28
2022-12-18T10:49:32.335Z,83.57
2022-12-18T10:53:05.557Z,84.30
2022-12-18T10:56:41.995Z,83.95
2022-12-18T11:00:31.656Z,83.86
2022-12-18T11:04:35.551Z,83.77
2022-12-18T11:07:59.881Z,83.84
2022-12-18T11:12:00.440Z,83.98
2022-12-18T11:15:30.699Z,84.25
2022-12-18T11:19:28.969Z,84.60
2022-12-18T11:23:00.623Z,84.42
2022-12-18T11:26:47.905Z,83.89
2022-12-18T11:30:37.111Z,84.00
2022-12-18T11:34:31.425Z,84.08
2022-12-18T11:38:03.983Z,83.38
2022-12-18T11:41:58.544Z,83.02
2022-12-18T11:45:28.620Z,83.21
2022-12-18T11:49:18.568Z,83.53
2022-12-18T11:52:42.808Z,83.38
2022-12-18T11:56:31.884Z,83.37
2022-12-18T12:00:19.420Z,84.07
2022-12-18T12:03:56.668Z,85.55
2022-12-18T12:07:46.830Z,85.60
2022-12-18T12:11:53.621Z,85.22
2022-12-18T12:15:40.326Z,85.34
2022-12-18T12:19:24.044Z,82.10
2022-12-18T12:22:58.456Z,75.32
2022-12-18T12:26:50.511Z,71.68
2022-12-18T12:30:21.050Z,67.74
2022-12-18T12:34:00.972Z,64.85
2022-12-18T12:38:09.068Z,64.57
2022-12-18T12:42:17.852Z,62.59
2022-12-18T12:45:56.829Z,61.39
2022-12-18T12:49:23.706Z,59.72
2022-12-18T12:52:58.357Z,57.37
2022-12-18T12:56:45.835Z,55.67
2022-12-18T13:00:17.527Z,56.48
2022-12-18T13:04:08.210Z,57.77
2022-12-18T13:08:02.799Z,57.16
2022-12-18T13:12:04.223Z,55.04
2022-12-18T13:19:36.945Z,56.35
2022-12-18T13:22:59.374Z,57.42
2022-12-18T13:26:37.118Z,57.36
2022-12-18T13:30:46.812Z,58.42
2022-12-18T13:34:31.468Z,58.18
2022-12-18T13:38:35.729Z,58.27
2022-12-18T13:42:07.374Z,58.80
2022-12-18T13:45:59.498Z,58.16
2022-12-18T13:49:44.218Z,57.81
2022-12-18T13:53:30.112Z,58.30
2022-12-18T13:56:52.546Z,59.11
2022-12-18T14:00:30.885Z,59.57
2022-12-18T14:04:29.599Z,60.09
2022-12-18T14:08:14.400Z,60.34
2022-12-18T14:11:36.942Z,60.40
2022-12-18T14:15:26.701Z,60.73
2022-12-18T14:19:02.738Z,61.02
2022-12-18T14:22:34.470Z,61.45
2022-12-18T14:26:29.832Z,61.80
2022-12-18T14:30:23.999Z,62.02
2022-12-18T14:33:46.151Z,62.36
2022-12-18T14:37:26.808Z,62.60
2022-12-18T14:41:02.776Z,62.82
2022-12-18T14:45:55.375Z,63.12
2022-12-18T14:49:35.213Z,63.07
2022-12-18T14:52:58.333Z,63.32
2022-12-18T14:57:22.509Z,63.75
2022-12-18T15:01:03.393Z,63.91
2022-12-18T15:04:38.269Z,64.73
2022-12-18T15:08:29.925Z,65.30
2022-12-18T15:12:01.273Z,65.06
2022-12-18T15:15:40.502Z,64.59
2022-12-18T15:19:09.025Z,64.72
2022-12-18T15:22:48.644Z,64.80
2022-12-18T15:26:23.408Z,64.78
2022-12-18T15:30:09.862Z,64.95
2022-12-18T15:33:59.274Z,64.99
2022-12-18T15:37:21.387Z,65.17
2022-12-18T15:40:59.730Z,65.25
2022-12-18T15:44:55.935Z,65.09
2022-12-18T15:48:43.006Z,65.25
2022-12-18T15:52:05.213Z,65.44
2022-12-18T15:56:01.811Z,65.75
2022-12-18T15:59:24.866Z,65.66
2022-12-18T16:03:03.669Z,65.75
2022-12-18T16:07:12.795Z,65.87
2022-12-18T16:10:25.012Z,65.70
2022-12-18T16:14:01.014Z,65.51
2022-12-18T16:17:39.041Z,65.97
2022-12-18T16:21:16.463Z,65.74
2022-12-18T16:25:25.189Z,65.99
2022-12-18T16:29:10.368Z,66.36
2022-12-18T16:32:35.501Z,66.18
2022-12-18T16:36:10.303Z,66.32
2022-12-18T16:39:48.175Z,66.79
2022-12-18T16:43:25.785Z,67.32
2022-12-18T16:47:03.996Z,67.56
2022-12-18T16:50:40.756Z,67.41
2022-12-18T16:54:19.710Z,67.62
2022-12-18T16:58:15.223Z,67.85
2022-12-18T17:01:37.492Z,68.41
2022-12-18T17:05:14.883Z,68.86
2022-12-18T17:09:01.413Z,69.19
2022-12-18T17:12:50.610Z,69.34
2022-12-18T17:16:31.922Z,69.51
2022-12-18T17:19:54.943Z,70.19
2022-12-18T17:23:51.944Z,70.22
2022-12-18T17:27:15.191Z,70.13
2022-12-18T17:30:53.408Z,70.61
2022-12-18T17:34:29.749Z,71.26
2022-12-18T17:38:07.444Z,71.25
2022-12-18T17:41:44.821Z,71.64
2022-12-18T17:45:22.867Z,71.51
2022-12-18T17:49:01.786Z,71.78
2022-12-18T17:52:38.177Z,72.02
2022-12-18T17:56:19.192Z,72.07
2022-12-18T17:59:54.590Z,72.09
2022-12-18T18:03:33.194Z,72.56
2022-12-18T18:07:27.679Z,72.49
2022-12-18T18:10:51.454Z,72.98
2022-12-18T18:14:27.945Z,73.51
2022-12-18T18:18:24.579Z,73.86
2022-12-18T18:21:49.739Z,74.10
2022-12-18T18:25:24.383Z,74.13
2022-12-18T18:29:04.851Z,74.92
2022-12-18T18:32:40.104Z,74.86
2022-12-18T18:36:17.465Z,75.09
2022-12-18T18:39:56.921Z,75.52
2022-12-18T18:43:32.921Z,75.80
2022-12-18T18:47:10.576Z,76.08
2022-12-18T18:51:06.455Z,75.98
2022-12-18T18:54:31.134Z,75.39
2022-12-18T18:58:26.791Z,75.23
2022-12-18T19:01:49.106Z,75.43
2022-12-18T19:05:27.800Z,75.78
2022-12-18T19:09:06.743Z,76.06
2022-12-18T19:13:00.822Z,77.28
2022-12-18T19:16:44.676Z,77.05
2022-12-18T19:20:27.754Z,77.31
2022-12-18T19:23:50.969Z,76.86
2022-12-18T19:27:27.717Z,76.66
2022-12-18T19:31:28.054Z,77.08
2022-12-18T19:34:53.948Z,76.99
2022-12-18T19:38:31.134Z,77.27
2022-12-18T19:42:09.231Z,77.00
2022-12-18T19:45:46.441Z,77.09
2022-12-18T19:49:26.093Z,77.47
2022-12-18T19:53:20.711Z,77.73
2022-12-18T19:56:43.434Z,78.19
2022-12-18T20:00:39.482Z,77.85
2022-12-18T20:04:01.787Z,77.75
2022-12-18T20:07:39.446Z,77.80
2022-12-18T20:11:17.168Z,77.95
2022-12-18T20:14:54.301Z,78.36
2022-12-18T20:18:33.187Z,78.50
2022-12-18T20:22:10.024Z,78.67
2022-12-18T20:25:47.344Z,78.09
2022-12-18T20:29:25.065Z,78.46
2022-12-18T20:33:02.847Z,78.29
2022-12-18T20:36:40.971Z,78.52
2022-12-18T20:40:23.299Z,78.49
2022-12-18T20:43:55.744Z,78.00
2022-12-18T20:47:55.488Z,78.28
2022-12-18T20:51:36.680Z,78.52
2022-12-18T20:54:58.904Z,79.02
2022-12-18T20:58:37.326Z,79.02
2022-12-18T21:02:33.896Z,78.90
2022-12-18T21:05:56.087Z,78.85
2022-12-18T21:09:37.558Z,78.97
2022-12-18T21:13:11.380Z,78.88
2022-12-18T21:17:08.566Z,78.79
2022-12-18T21:20:30.405Z,78.74
2022-12-18T21:24:09.891Z,78.82
2022-12-18T21:27:45.610Z,79.04
2022-12-18T21:31:25.794Z,78.78
2022-12-18T21:35:01.322Z,78.84
2022-12-18T21:38:38.932Z,78.74
2022-12-18T21:42:54.155Z,78.61
2022-12-18T21:46:17.844Z,78.81
2022-12-18T21:49:54.438Z,78.72
2022-12-18T21:53:51.129Z,78.94
2022-12-18T21:57:32.448Z,78.90
2022-12-18T22:00:55.622Z,78.87
2022-12-18T22:04:32.772Z,78.67
2022-12-18T22:08:29.250Z,78.59
2022-12-18T22:11:52.555Z,78.27
2022-12-18T22:15:29.552Z,78.41
2022-12-18T22:19:10.361Z,78.21
2022-12-18T22:22:45.173Z,78.08
2022-12-18T22:26:24.016Z,78.26
2022-12-18T22:30:05.585Z,78.41
2022-12-18T22:33:37.676Z,78.35
2022-12-18T22:37:15.360Z,78.68
2022-12-18T22:41:11.772Z,78.82
2022-12-18T22:44:34.271Z,79.10
2022-12-18T22:48:11.747Z,79.06
2022-12-18T22:51:50.521Z,79.14
2022-12-18T22:55:45.945Z,79.38
2022-12-18T22:59:09.639Z,79.18
2022-12-18T23:02:46.571Z,79.26
2022-12-18T23:06:44.138Z,79.53
2022-12-18T23:10:26.769Z,79.36
2022-12-18T23:13:48.943Z,79.46
2022-12-18T23:17:45.497Z,79.49
2022-12-18T23:21:10.998Z,79.55
2022-12-18T23:25:04.404Z,79.47
2022-12-18T23:28:26.557Z,79.54
2022-12-18T23:32:04.217Z,79.57
2022-12-18T23:35:41.872Z,79.69
2022-12-18T23:39:29.768Z,79.59
2022-12-18T23:42:58.654Z,79.69
2022-12-18T23:46:53.947Z,79.62
2022-12-18T23:50:15.970Z,79.67
2022-12-18T23:53:57.215Z,79.91
2022-12-18T23:57:31.517Z,80.00
